createdAt,value
2022-09-23T00:02:15.231Z,100524.83
2022-09-23T00:04:48.152Z,100516.10
2022-09-23T00:07:22.118Z,100515.23
2022-09-23T00:09:56.642Z,100519.80
2022-09-23T00:12:29.762Z,100519.77
2022-09-23T00:15:03.034Z,100519.24
2022-09-23T00:17:36.252Z,100522.06
2022-09-23T00:20:10.811Z,100524.16
2022-09-23T00:22:43.848Z,100525.91
2022-09-23T00:25:16.728Z,100512.73
2022-09-23T00:27:49.671Z,100528.01
2022-09-23T00:30:23.990Z,100531.56
2022-09-23T00:32:57.371Z,100532.31
2022-09-23T00:35:30.440Z,100536.69
2022-09-23T00:38:03.257Z,100529.80
2022-09-23T00:40:36.849Z,100520.52
2022-09-23T00:43:12.058Z,100527.46
2022-09-23T00:45:49.522Z,100517.91
2022-09-23T00:48:23.963Z,100506.50
2022-09-23T00:50:57.868Z,100514.89
2022-09-23T00:53:31.013Z,100517.58
2022-09-23T00:56:10.868Z,100525.30
2022-09-23T00:58:46.528Z,100525.02
2022-09-23T01:01:19.947Z,100524.23
2022-09-23T01:03:54.875Z,100522.70
2022-09-23T01:06:31.735Z,100522.34
2022-09-23T01:09:04.738Z,100515.23
2022-09-23T01:11:59.732Z,100529.66
2022-09-23T01:15:04.573Z,100528.74
2022-09-23T01:18:19.964Z,100526.40
2022-09-23T01:21:01.241Z,100521.52
2022-09-23T01:24:10.529Z,100523.55
2022-09-23T01:26:57.348Z,100516.48
2022-09-23T01:29:46.453Z,100514.80
2022-09-23T01:32:36.189Z,100532.72
2022-09-23T01:35:08.678Z,100535.81
2022-09-23T01:38:12.305Z,100531.27
2022-09-23T01:41:06.951Z,100530.56
2022-09-23T01:43:48.525Z,100531.75
2022-09-23T01:46:34.057Z,100534.23
2022-09-23T01:49:20.760Z,100528.05
2022-09-23T01:52:00.982Z,100536.48
2022-09-23T01:54:45.780Z,100532.34
2022-09-23T01:57:46.844Z,100533.30
2022-09-23T02:00:22.913Z,100533.56
2022-09-23T02:03:10.751Z,100526.27
2022-09-23T02:05:59.926Z,100516.80
2022-09-23T02:08:49.546Z,100527.54
2022-09-23T02:11:22.471Z,100519.41
2022-09-23T02:14:00.935Z,100522.33
2022-09-23T02:16:48.502Z,100534.11
2022-09-23T02:19:45.253Z,100520.83
2022-09-23T02:22:30.917Z,100529.77
2022-09-23T02:25:04.420Z,100529.87
2022-09-23T02:27:58.332Z,100530.93
2022-09-23T02:30:40.774Z,100535.83
2022-09-23T02:33:27.886Z,100533.31
2022-09-23T02:36:39.455Z,100535.28
2022-09-23T02:39:15.537Z,100539.90
2022-09-23T02:42:11.352Z,100533.44
2022-09-23T02:44:43.985Z,100536.92
2022-09-23T02:47:17.210Z,100546.30
2022-09-23T02:49:49.849Z,100530.42
2022-09-23T02:52:22.566Z,100544.31
2022-09-23T02:54:56.542Z,100544.05
2022-09-23T02:57:29.066Z,100544.83
2022-09-23T03:00:02.529Z,100544.39
2022-09-23T03:02:58.385Z,100543.91
2022-09-23T03:05:36.746Z,100538.97
2022-09-23T03:08:26.572Z,100543.31
2022-09-23T03:11:13.983Z,100543.10
2022-09-23T03:14:05.646Z,100543.70
2022-09-23T03:17:04.973Z,100543.13
2022-09-23T03:19:43.039Z,100541.02
2022-09-23T03:22:34.214Z,100545.33
2022-09-23T03:25:13.473Z,100542.11
2022-09-23T03:27:47.244Z,100546.38
2022-09-23T03:30:22.063Z,100546.45
2022-09-23T03:32:56.707Z,100556.40
2022-09-23T03:35:33.313Z,100550.95
2022-09-23T03:38:17.230Z,100549.05
2022-09-23T03:40:51.483Z,100548.51
2022-09-23T03:43:24.657Z,100560.64
2022-09-23T03:45:58.712Z,100560.21
2022-09-23T03:48:31.358Z,100560.86
2022-09-23T03:51:26.533Z,100546.71
2022-09-23T03:53:59.200Z,100555.27
2022-09-23T03:56:31.864Z,100552.27
2022-09-23T03:59:04.587Z,100550.02
2022-09-23T04:01:37.707Z,100552.23
2022-09-23T04:04:10.400Z,100546.72
2022-09-23T04:06:42.969Z,100555.06
2022-09-23T04:09:15.882Z,100554.54
2022-09-23T04:11:50.339Z,100552.85
2022-09-23T04:14:23.819Z,100552.83
2022-09-23T04:16:56.719Z,100550.51
2022-09-23T04:19:29.323Z,100537.45
2022-09-23T04:22:02.833Z,100534.08
2022-09-23T04:24:35.702Z,100548.64
2022-09-23T04:27:09.308Z,100549.73
2022-09-23T04:29:42.119Z,100546.31
2022-09-23T04:32:15.074Z,100544.80
2022-09-23T04:34:48.165Z,100540.02
2022-09-23T04:37:21.032Z,100555.10
2022-09-23T04:39:54.856Z,100556.71
2022-09-23T04:42:31.298Z,100556.42
2022-09-23T04:45:05.907Z,100559.61
2022-09-23T04:47:38.457Z,100558.64
2022-09-23T04:50:12.738Z,100557.18
2022-09-23T04:52:45.408Z,100559.30
2022-09-23T04:55:18.751Z,100558.67
2022-09-23T04:57:51.913Z,100558.94
2022-09-23T05:00:25.253Z,100559.66
2022-09-23T05:02:58.849Z,100561.83
2022-09-23T05:05:32.700Z,100558.86
2022-09-23T05:08:05.692Z,100564.55
2022-09-23T05:10:45.082Z,100560.58
2022-09-23T05:13:18.595Z,100560.55
2022-09-23T05:15:51.760Z,100560.98
2022-09-23T05:18:25.304Z,100560.63
2022-09-23T05:20:59.032Z,100556.66
2022-09-23T05:23:32.587Z,100556.84
2022-09-23T05:26:11.233Z,100551.24
2022-09-23T05:28:44.839Z,100554.04
2022-09-23T05:31:20.807Z,100535.64
2022-09-23T05:34:02.346Z,100554.73
2022-09-23T05:36:38.676Z,100560.00
2022-09-23T05:39:12.699Z,100563.04
2022-09-23T05:41:46.967Z,100563.39
2022-09-23T05:44:20.289Z,100563.83
2022-09-23T05:46:55.107Z,100563.65
2022-09-23T05:49:55.281Z,100560.31
2022-09-23T05:52:26.169Z,100568.80
2022-09-23T05:54:59.359Z,100556.26
2022-09-23T05:57:33.217Z,100571.78
2022-09-23T06:00:06.917Z,100575.04
2022-09-23T06:02:50.212Z,100578.10
2022-09-23T06:05:23.889Z,100581.06
2022-09-23T06:07:58.879Z,100572.52
2022-09-23T06:10:31.809Z,100583.61
2022-09-23T06:13:04.534Z,100580.34
2022-09-23T06:15:37.489Z,100579.33
2022-09-23T06:18:11.215Z,100579.59
2022-09-23T06:20:45.225Z,100584.19
2022-09-23T06:23:20.263Z,100587.20
2022-09-23T06:25:56.725Z,100587.45
2022-09-23T06:28:36.410Z,100581.89
2022-09-23T06:31:17.937Z,100583.38
2022-09-23T06:34:03.730Z,100584.25
2022-09-23T06:36:47.087Z,100570.16
2022-09-23T06:39:20.444Z,100556.81
2022-09-23T06:41:53.919Z,100579.70
2022-09-23T06:44:29.498Z,100579.05
2022-09-23T06:47:03.629Z,100573.19
2022-09-23T06:49:38.861Z,100582.78
2022-09-23T06:52:12.064Z,100578.33
2022-09-23T06:54:45.976Z,100576.05
2022-09-23T06:57:19.767Z,100568.06
2022-09-23T06:59:53.332Z,100552.80
2022-09-23T07:02:26.938Z,100572.75
2022-09-23T07:05:00.089Z,100575.13
2022-09-23T07:07:37.923Z,100569.31
2022-09-23T07:10:11.324Z,100571.36
2022-09-23T07:12:44.732Z,100580.45
2022-09-23T07:15:17.785Z,100580.27
2022-09-23T07:17:51.339Z,100573.37
2022-09-23T07:20:25.482Z,100581.43
2022-09-23T07:22:58.695Z,100571.58
2022-09-23T07:25:34.907Z,100577.16
2022-09-23T07:28:08.538Z,100580.30
2022-09-23T07:30:55.612Z,100581.55
2022-09-23T07:33:35.179Z,100580.77
2022-09-23T07:36:14.691Z,100579.15
2022-09-23T07:38:50.107Z,100582.66
2022-09-23T07:41:24.425Z,100574.44
2022-09-23T07:43:59.639Z,100567.38
2022-09-23T07:46:35.499Z,100570.98
2022-09-23T07:49:10.890Z,100575.73
2022-09-23T07:51:48.685Z,100571.08
2022-09-23T07:54:26.412Z,100559.05
2022-09-23T07:57:00.957Z,100567.14
2022-09-23T07:59:34.371Z,100567.35
2022-09-23T08:02:08.080Z,100555.27
2022-09-23T08:04:44.000Z,100540.04
2022-09-23T08:07:17.473Z,100563.27
2022-09-23T08:09:58.003Z,100563.16
2022-09-23T08:12:32.381Z,100559.21
2022-09-23T08:15:05.470Z,100554.63
2022-09-23T08:17:39.151Z,100553.14
2022-09-23T08:20:33.102Z,100553.79
2022-09-23T08:23:06.374Z,100547.02
2022-09-23T08:25:39.664Z,100548.54
2022-09-23T08:28:14.826Z,100545.23
2022-09-23T08:30:50.298Z,100539.19
2022-09-23T08:33:24.060Z,100542.73
2022-09-23T08:36:03.268Z,100535.16
2022-09-23T08:38:38.385Z,100540.79
2022-09-23T08:41:39.271Z,100538.08
2022-09-23T08:44:26.038Z,100537.94
2022-09-23T08:47:15.146Z,100533.80
2022-09-23T08:49:57.649Z,100527.92
2022-09-23T08:52:48.680Z,100525.85
2022-09-23T08:55:24.940Z,100527.36
2022-09-23T08:58:27.668Z,100517.44
2022-09-23T09:01:18.745Z,100510.09
2022-09-23T09:04:31.690Z,100521.11
2022-09-23T09:10:29.218Z,100509.51
2022-09-23T09:13:23.298Z,100514.24
2022-09-23T09:16:15.826Z,100521.27
2022-09-23T09:19:02.616Z,100525.01
2022-09-23T09:21:42.016Z,100522.45
2022-09-23T09:24:34.414Z,100515.81
2022-09-23T09:27:15.377Z,100512.42
2022-09-23T09:29:56.321Z,100511.29
2022-09-23T09:32:34.579Z,100513.04
2022-09-23T09:35:33.925Z,100523.65
2022-09-23T09:38:08.528Z,100506.01
2022-09-23T09:40:49.669Z,100516.27
2022-09-23T09:43:24.354Z,100507.66
2022-09-23T09:46:29.974Z,100508.33
2022-09-23T09:49:23.876Z,100520.58
2022-09-23T09:52:30.248Z,100526.70
2022-09-23T09:55:25.891Z,100525.47
2022-09-23T09:58:05.209Z,100524.02
2022-09-23T10:00:48.146Z,100523.48
2022-09-23T10:03:39.859Z,100520.77
2022-09-23T10:06:24.999Z,100516.56
2022-09-23T10:09:14.690Z,100516.02
2022-09-23T10:12:15.705Z,100513.70
2022-09-23T10:14:54.013Z,100498.70
2022-09-23T10:17:32.740Z,100509.27
2022-09-23T10:20:16.985Z,100509.25
2022-09-23T10:22:50.246Z,100506.27
2022-09-23T10:25:28.173Z,100505.55
2022-09-23T10:28:21.547Z,100498.36
2022-09-23T10:31:26.756Z,100493.29
2022-09-23T10:34:05.476Z,100484.49
2022-09-23T10:36:43.828Z,100493.95
2022-09-23T10:39:37.651Z,100487.20
2022-09-23T10:42:46.669Z,100492.67
2022-09-23T10:45:43.580Z,100485.21
2022-09-23T10:48:37.710Z,100487.21
2022-09-23T10:51:42.566Z,100477.27
2022-09-23T10:54:55.664Z,100481.16
2022-09-23T10:57:42.825Z,100471.15
2022-09-23T11:00:42.702Z,100482.98
2022-09-23T11:03:52.550Z,100475.91
2022-09-23T11:06:49.842Z,100473.29
2022-09-23T11:09:48.317Z,100467.89
2022-09-23T11:12:51.699Z,100476.85
2022-09-23T11:15:35.503Z,100477.14
2022-09-23T11:18:43.442Z,100472.05
2022-09-23T11:21:45.183Z,100464.23
2022-09-23T11:24:53.910Z,100474.96
2022-09-23T11:27:58.187Z,100459.50
2022-09-23T11:30:48.885Z,100466.78
2022-09-23T11:33:46.560Z,100458.45
2022-09-23T11:36:46.964Z,100461.46
2022-09-23T11:39:31.810Z,100460.85
2022-09-23T11:42:14.678Z,100465.19
2022-09-23T11:45:16.263Z,100467.16
2022-09-23T11:47:56.937Z,100463.45
2022-09-23T11:50:51.348Z,100458.23
2022-09-23T11:53:33.174Z,100455.55
2022-09-23T11:56:34.235Z,100439.98
2022-09-23T11:59:43.583Z,100441.46
2022-09-23T12:02:31.225Z,100431.88
2022-09-23T12:05:20.673Z,100428.58
2022-09-23T12:08:18.779Z,100427.23
2022-09-23T12:11:03.512Z,100429.80
2022-09-23T12:13:57.011Z,100427.36
2022-09-23T12:16:49.634Z,100423.44
2022-09-23T12:19:40.196Z,100429.83
2022-09-23T12:22:50.219Z,100421.67
2022-09-23T12:26:03.792Z,100423.95
2022-09-23T12:28:45.623Z,100422.86
2022-09-23T12:31:33.033Z,100424.48
2022-09-23T12:34:30.990Z,100423.16
2022-09-23T12:37:07.375Z,100420.36
2022-09-23T12:39:41.674Z,100418.59
2022-09-23T12:42:28.876Z,100419.09
2022-09-23T12:45:35.553Z,100414.44
2022-09-23T12:48:46.438Z,100416.33
2022-09-23T12:51:22.259Z,100416.64
2022-09-23T12:53:59.015Z,100422.75
2022-09-23T12:56:56.454Z,100418.71
2022-09-23T12:59:32.291Z,100412.20
2022-09-23T13:02:36.704Z,100408.65
2022-09-23T13:05:34.744Z,100419.43
2022-09-23T13:08:33.211Z,100420.73
2022-09-23T13:11:10.384Z,100422.45
2022-09-23T13:13:48.075Z,100418.21
2022-09-23T13:17:00.107Z,100420.35
2022-09-23T13:19:38.030Z,100418.74
2022-09-23T13:22:14.002Z,100406.52
2022-09-23T13:25:09.690Z,100410.05
2022-09-23T13:27:48.311Z,100409.24
2022-09-23T13:30:27.218Z,100411.95
2022-09-23T13:33:06.888Z,100409.69
2022-09-23T13:35:43.862Z,100413.27
2022-09-23T13:38:30.127Z,100412.36
2022-09-23T13:41:17.005Z,100412.83
2022-09-23T13:43:54.192Z,100411.93
2022-09-23T13:46:37.441Z,100402.92
2022-09-23T13:49:25.329Z,100411.96
2022-09-23T13:52:00.631Z,100407.22
2022-09-23T13:54:37.224Z,100412.62
2022-09-23T13:57:29.983Z,100394.89
2022-09-23T14:00:20.238Z,100399.28
2022-09-23T14:02:56.357Z,100413.11
2022-09-23T14:05:32.780Z,100415.66
2022-09-23T14:08:06.138Z,100407.95
2022-09-23T14:10:44.010Z,100411.55
2022-09-23T14:13:34.738Z,100412.89
2022-09-23T14:16:12.384Z,100423.08
2022-09-23T14:18:50.660Z,100426.40
2022-09-23T14:21:40.250Z,100428.84
2022-09-23T14:24:39.616Z,100426.96
2022-09-23T14:27:32.215Z,100418.88
2022-09-23T14:30:06.612Z,100423.23
2022-09-23T14:32:42.582Z,100413.83
2022-09-23T14:35:27.320Z,100414.33
2022-09-23T14:38:19.633Z,100422.63
2022-09-23T14:41:18.705Z,100423.26
2022-09-23T14:44:07.395Z,100411.34
2022-09-23T14:46:41.421Z,100419.98
2022-09-23T14:49:14.324Z,100422.17
2022-09-23T14:52:01.590Z,100425.20
2022-09-23T14:54:47.764Z,100429.64
2022-09-23T14:57:32.223Z,100430.27
2022-09-23T15:00:18.061Z,100429.70
2022-09-23T15:03:16.555Z,100429.96
2022-09-23T15:05:51.277Z,100433.52
2022-09-23T15:08:27.895Z,100433.59
2022-09-23T15:11:07.008Z,100433.77
2022-09-23T15:13:45.004Z,100426.73
2022-09-23T15:16:25.362Z,100436.13
2022-09-23T15:19:01.042Z,100437.41
2022-09-23T15:21:47.579Z,100430.45
2022-09-23T15:24:46.014Z,100437.61
2022-09-23T15:27:35.158Z,100431.07
2022-09-23T15:30:19.912Z,100434.97
2022-09-23T15:32:53.109Z,100434.71
2022-09-23T15:35:27.371Z,100428.65
2022-09-23T15:38:02.210Z,100438.98
2022-09-23T15:40:37.689Z,100438.11
2022-09-23T15:43:27.762Z,100442.42
2022-09-23T15:46:06.927Z,100443.44
2022-09-23T15:48:46.277Z,100447.71
2022-09-23T15:51:20.074Z,100443.64
2022-09-23T15:53:55.962Z,100454.28
2022-09-23T15:56:28.911Z,100455.00
2022-09-23T15:59:01.630Z,100444.24
2022-09-23T16:01:38.928Z,100443.70
2022-09-23T16:04:17.040Z,100438.38
2022-09-23T16:06:49.934Z,100454.77
2022-09-23T16:09:23.674Z,100449.55
2022-09-23T16:11:56.703Z,100456.48
2022-09-23T16:14:29.894Z,100458.75
2022-09-23T16:17:03.856Z,100448.27
2022-09-23T16:19:36.531Z,100460.88
2022-09-23T16:22:09.231Z,100454.70
2022-09-23T16:24:44.650Z,100465.90
2022-09-23T16:27:19.958Z,100470.34
2022-09-23T16:29:52.652Z,100470.21
2022-09-23T16:32:25.404Z,100472.73
2022-09-23T16:34:59.032Z,100471.47
2022-09-23T16:37:32.005Z,100466.63
2022-09-23T16:40:08.119Z,100478.11
2022-09-23T16:42:41.142Z,100475.06
2022-09-23T16:45:17.387Z,100462.90
2022-09-23T16:47:52.166Z,100478.55
2022-09-23T16:50:27.384Z,100473.52
2022-09-23T16:53:01.575Z,100481.20
2022-09-23T16:55:35.843Z,100500.06
2022-09-23T16:58:09.409Z,100504.48
2022-09-23T17:01:05.595Z,100533.78
2022-09-23T17:03:41.627Z,100542.86
2022-09-23T17:06:16.336Z,100543.38
2022-09-23T17:08:51.608Z,100548.64
2022-09-23T17:11:25.086Z,100566.59
2022-09-23T17:13:59.100Z,100565.42
2022-09-23T17:16:34.403Z,100569.52
2022-09-23T17:19:10.967Z,100571.48
2022-09-23T17:21:43.579Z,100563.33
2022-09-23T17:24:16.364Z,100549.64
2022-09-23T17:26:52.818Z,100546.73
2022-09-23T17:29:27.377Z,100563.80
2022-09-23T17:32:00.634Z,100566.40
2022-09-23T17:34:33.790Z,100560.47
2022-09-23T17:37:07.086Z,100560.98
2022-09-23T17:39:39.700Z,100562.18
2022-09-23T17:42:12.634Z,100567.56
2022-09-23T17:44:46.213Z,100551.96
2022-09-23T17:47:18.925Z,100562.75
2022-09-23T17:49:51.444Z,100569.31
2022-09-23T17:52:24.066Z,100567.52
2022-09-23T17:54:56.989Z,100566.90
2022-09-23T17:57:30.296Z,100550.88
2022-09-23T18:00:06.161Z,100563.17
2022-09-23T18:02:46.786Z,100559.95
2022-09-23T18:05:20.165Z,100565.15
2022-09-23T18:07:54.583Z,100550.55
2022-09-23T18:10:28.062Z,100556.54
2022-09-23T18:13:00.879Z,100551.02
2022-09-23T18:15:36.944Z,100554.95
2022-09-23T18:18:09.854Z,100542.77
2022-09-23T18:20:43.074Z,100551.84
2022-09-23T18:23:17.027Z,100551.73
2022-09-23T18:25:50.720Z,100540.31
2022-09-23T18:28:23.564Z,100555.48
2022-09-23T18:31:01.144Z,100543.84
2022-09-23T18:33:33.841Z,100550.11
2022-09-23T18:36:07.734Z,100529.02
2022-09-23T18:38:41.102Z,100547.45
2022-09-23T18:41:13.898Z,100537.33
2022-09-23T18:43:48.686Z,100540.25
2022-09-23T18:46:23.711Z,100548.95
2022-09-23T18:49:15.187Z,100542.55
2022-09-23T18:51:56.210Z,100534.30
2022-09-23T18:54:32.112Z,100549.13
2022-09-23T18:57:05.935Z,100546.45
2022-09-23T18:59:38.816Z,100546.33
2022-09-23T19:02:12.016Z,100543.56
2022-09-23T19:04:44.743Z,100545.66
2022-09-23T19:07:17.936Z,100545.16
2022-09-23T19:09:50.712Z,100547.15
2022-09-23T19:12:23.755Z,100543.21
2022-09-23T19:14:56.790Z,100540.17
2022-09-23T19:17:30.615Z,100530.33
2022-09-23T19:20:03.947Z,100544.08
2022-09-23T19:22:37.298Z,100547.29
2022-09-23T19:25:11.067Z,100530.98
2022-09-23T19:27:44.156Z,100529.29
2022-09-23T19:30:18.352Z,100538.22
2022-09-23T19:32:51.347Z,100536.55
2022-09-23T19:35:24.699Z,100545.23
2022-09-23T19:37:58.304Z,100542.56
2022-09-23T19:40:31.730Z,100531.80
2022-09-23T19:43:06.053Z,100539.92
2022-09-23T19:45:39.003Z,100520.69
2022-09-23T19:48:12.307Z,100538.27
2022-09-23T19:50:48.116Z,100542.14
2022-09-23T19:53:23.762Z,100540.42
2022-09-23T19:56:05.475Z,100529.94
2022-09-23T19:58:39.349Z,100539.25
2022-09-23T20:01:12.255Z,100535.75
2022-09-23T20:03:48.378Z,100538.86
2022-09-23T20:06:22.057Z,100527.13
2022-09-23T20:08:58.202Z,100546.99
2022-09-23T20:11:31.849Z,100547.55
2022-09-23T20:14:06.655Z,100543.21
2022-09-23T20:16:44.123Z,100539.36
2022-09-23T20:19:17.597Z,100523.30
2022-09-23T20:22:11.491Z,100535.38
2022-09-23T20:24:44.494Z,100535.02
2022-09-23T20:27:17.270Z,100523.80
2022-09-23T20:29:51.933Z,100526.05
2022-09-23T20:32:25.248Z,100535.27
2022-09-23T20:34:58.180Z,100536.20
2022-09-23T20:37:31.082Z,100543.11
2022-09-23T20:40:03.804Z,100543.55
2022-09-23T20:42:36.581Z,100543.24
2022-09-23T20:45:10.511Z,100544.33
2022-09-23T20:47:43.654Z,100543.16
2022-09-23T20:50:16.716Z,100536.17
2022-09-23T20:52:49.540Z,100539.77
2022-09-23T20:55:22.665Z,100542.39
2022-09-23T20:57:56.325Z,100517.11
2022-09-23T21:00:29.670Z,100515.63
2022-09-23T21:03:03.016Z,100505.41
2022-09-23T21:05:37.937Z,100526.14
2022-09-23T21:08:10.788Z,100535.96
2022-09-23T21:10:43.834Z,100535.17
2022-09-23T21:13:21.716Z,100526.40
2022-09-23T21:15:54.592Z,100535.83
2022-09-23T21:18:27.160Z,100527.34
2022-09-23T21:21:03.365Z,100530.67
2022-09-23T21:23:38.525Z,100519.52
2022-09-23T21:26:15.934Z,100528.45
2022-09-23T21:28:50.287Z,100524.80
2022-09-23T21:31:26.296Z,100507.77
2022-09-23T21:34:06.871Z,100513.28
2022-09-23T21:36:43.283Z,100525.93
2022-09-23T21:39:16.407Z,100527.53
2022-09-23T21:41:51.900Z,100527.66
2022-09-23T21:44:25.308Z,100530.31
2022-09-23T21:46:57.982Z,100530.30
2022-09-23T21:49:32.887Z,100530.41
2022-09-23T21:52:11.128Z,100531.31
2022-09-23T21:54:43.944Z,100531.86
2022-09-23T21:57:16.792Z,100530.37
2022-09-23T21:59:49.980Z,100528.05
2022-09-23T22:02:23.836Z,100528.20
2022-09-23T22:04:56.387Z,100528.99
2022-09-23T22:07:29.236Z,100515.16
2022-09-23T22:10:01.829Z,100531.31
2022-09-23T22:12:35.021Z,100521.08
2022-09-23T22:15:08.099Z,100528.76
2022-09-23T22:17:40.897Z,100526.17
2022-09-23T22:20:13.866Z,100528.73
2022-09-23T22:22:46.673Z,100529.52
2022-09-23T22:25:20.291Z,100528.39
2022-09-23T22:28:11.571Z,100528.11
2022-09-23T22:31:05.797Z,100525.59
2022-09-23T22:33:38.882Z,100527.79
2022-09-23T22:36:13.315Z,100526.89
2022-09-23T22:38:46.438Z,100527.69
2022-09-23T22:41:21.907Z,100529.23
2022-09-23T22:43:55.019Z,100506.08
2022-09-23T22:46:28.435Z,100511.70
2022-09-23T22:49:01.573Z,100518.85
2022-09-23T22:51:34.150Z,100520.52
2022-09-23T22:54:07.069Z,100524.12
2022-09-23T22:56:39.947Z,100513.21
2022-09-23T22:59:14.727Z,100527.14
2022-09-23T23:01:47.710Z,100526.27
2022-09-23T23:04:20.404Z,100523.60
2022-09-23T23:06:53.237Z,100517.89
2022-09-23T23:09:26.547Z,100508.86
2022-09-23T23:11:59.357Z,100510.86
2022-09-23T23:14:31.947Z,100513.25
2022-09-23T23:17:08.116Z,100511.90
2022-09-23T23:19:41.285Z,100513.02
2022-09-23T23:22:14.143Z,100511.48
2022-09-23T23:24:47.024Z,100507.75
2022-09-23T23:27:19.556Z,100509.72
2022-09-23T23:29:52.586Z,100523.05
2022-09-23T23:32:25.685Z,100522.84
2022-09-23T23:34:58.827Z,100514.42
2022-09-23T23:37:32.367Z,100511.35
2022-09-23T23:40:05.820Z,100510.48
2022-09-23T23:42:38.735Z,100506.63
2022-09-23T23:45:11.499Z,100504.09
2022-09-23T23:47:44.461Z,100494.80
2022-09-23T23:50:17.170Z,100510.26
2022-09-23T23:52:49.780Z,100498.26
2022-09-23T23:55:22.593Z,100501.45
2022-09-23T23:57:56.345Z,100507.23
